sensor_id;sensor_type;location;lat;lon;timestamp;temperature;humidity
45066;DHT22;30830;53.704;10.004;2023-09-07T00:00:39;19.20;99.90
45066;DHT22;30830;53.704;10.004;2023-09-07T00:03:05;19.20;99.90
45066;DHT22;30830;53.704;10.004;2023-09-07T00:05:31;19.20;99.90
45066;DHT22;30830;53.704;10.004;2023-09-07T00:07:56;19.10;99.90
45066;DHT22;30830;53.704;10.004;2023-09-07T00:10:23;19.10;99.90
45066;DHT22;30830;53.704;10.004;2023-09-07T00:12:48;19.10;99.90
45066;DHT22;30830;53.704;10.004;2023-09-07T00:15:17;19.10;99.90
45066;DHT22;30830;53.704;10.004;2023-09-07T00:17:44;19.00;99.90
45066;DHT22;30830;53.704;10.004;2023-09-07T00:20:10;19.00;99.90
45066;DHT22;30830;53.704;10.004;2023-09-07T00:22:37;19.00;99.90
45066;DHT22;30830;53.704;10.004;2023-09-07T00:25:03;19.00;99.90
45066;DHT22;30830;53.704;10.004;2023-09-07T00:27:29;19.00;99.90
45066;DHT22;30830;53.704;10.004;2023-09-07T00:29:55;19.00;99.90
45066;DHT22;30830;53.704;10.004;2023-09-07T00:32:21;18.90;99.90
45066;DHT22;30830;53.704;10.004;2023-09-07T00:34:46;18.90;99.90
45066;DHT22;30830;53.704;10.004;2023-09-07T00:37:12;18.90;99.90
45066;DHT22;30830;53.704;10.004;2023-09-07T00:39:38;18.90;99.90
45066;DHT22;30830;53.704;10.004;2023-09-07T00:42:04;18.90;99.90
45066;DHT22;30830;53.704;10.004;2023-09-07T00:44:29;18.80;99.90
45066;DHT22;30830;53.704;10.004;2023-09-07T00:46:56;18.80;99.90
45066;DHT22;30830;53.704;10.004;2023-09-07T00:49:22;18.80;99.90
45066;DHT22;30830;53.704;10.004;2023-09-07T00:51:48;18.80;99.90
45066;DHT22;30830;53.704;10.004;2023-09-07T00:54:14;18.80;99.90
45066;DHT22;30830;53.704;10.004;2023-09-07T00:56:40;18.70;99.90
45066;DHT22;30830;53.704;10.004;2023-09-07T00:59:07;18.70;99.90
45066;DHT22;30830;53.704;10.004;2023-09-07T01:01:34;18.70;99.90
45066;DHT22;30830;53.704;10.004;2023-09-07T01:04:00;18.60;99.90
45066;DHT22;30830;53.704;10.004;2023-09-07T01:06:32;18.60;99.90
45066;DHT22;30830;53.704;10.004;2023-09-07T01:09:04;18.60;99.90
45066;DHT22;30830;53.704;10.004;2023-09-07T01:11:37;18.60;99.90
45066;DHT22;30830;53.704;10.004;2023-09-07T01:14:03;18.50;99.90
45066;DHT22;30830;53.704;10.004;2023-09-07T01:16:30;18.50;99.90
45066;DHT22;30830;53.704;10.004;2023-09-07T01:18:56;18.50;99.90
45066;DHT22;30830;53.704;10.004;2023-09-07T01:21:22;18.40;99.90
45066;DHT22;30830;53.704;10.004;2023-09-07T01:23:49;18.40;99.90
45066;DHT22;30830;53.704;10.004;2023-09-07T01:26:15;18.40;99.90
45066;DHT22;30830;53.704;10.004;2023-09-07T01:28:41;18.30;99.90
45066;DHT22;30830;53.704;10.004;2023-09-07T01:31:07;18.30;99.90
45066;DHT22;30830;53.704;10.004;2023-09-07T01:33:33;18.20;99.90
45066;DHT22;30830;53.704;10.004;2023-09-07T01:35:58;18.20;99.90
45066;DHT22;30830;53.704;10.004;2023-09-07T01:38:24;18.10;99.90
45066;DHT22;30830;53.704;10.004;2023-09-07T01:40:49;18.10;99.90
45066;DHT22;30830;53.704;10.004;2023-09-07T01:43:15;18.10;99.90
45066;DHT22;30830;53.704;10.004;2023-09-07T01:45:40;18.10;99.90
45066;DHT22;30830;53.704;10.004;2023-09-07T01:48:10;18.10;99.90
45066;DHT22;30830;53.704;10.004;2023-09-07T01:50:36;18.10;99.90
45066;DHT22;30830;53.704;10.004;2023-09-07T01:53:02;18.00;99.90
45066;DHT22;30830;53.704;10.004;2023-09-07T01:55:30;18.00;99.90
45066;DHT22;30830;53.704;10.004;2023-09-07T01:57:55;18.00;99.90
45066;DHT22;30830;53.704;10.004;2023-09-07T02:00:21;18.00;99.90
45066;DHT22;30830;53.704;10.004;2023-09-07T02:02:46;18.00;99.90
45066;DHT22;30830;53.704;10.004;2023-09-07T02:05:12;18.00;99.90
45066;DHT22;30830;53.704;10.004;2023-09-07T02:07:38;18.00;99.90
45066;DHT22;30830;53.704;10.004;2023-09-07T02:10:04;18.00;99.90
45066;DHT22;30830;53.704;10.004;2023-09-07T02:12:29;18.00;99.90
45066;DHT22;30830;53.704;10.004;2023-09-07T02:14:55;18.00;99.90
45066;DHT22;30830;53.704;10.004;2023-09-07T02:17:21;17.90;99.90
45066;DHT22;30830;53.704;10.004;2023-09-07T02:19:50;17.90;99.90
45066;DHT22;30830;53.704;10.004;2023-09-07T02:22:15;17.90;99.90
45066;DHT22;30830;53.704;10.004;2023-09-07T02:24:41;17.90;99.90
45066;DHT22;30830;53.704;10.004;2023-09-07T02:27:06;17.80;99.90
45066;DHT22;30830;53.704;10.004;2023-09-07T02:29:32;17.80;99.90
45066;DHT22;30830;53.704;10.004;2023-09-07T02:31:58;17.80;99.90
45066;DHT22;30830;53.704;10.004;2023-09-07T02:34:23;17.70;99.90
45066;DHT22;30830;53.704;10.004;2023-09-07T02:36:49;17.70;99.90
45066;DHT22;30830;53.704;10.004;2023-09-07T02:39:14;17.60;99.90
45066;DHT22;30830;53.704;10.004;2023-09-07T02:41:40;17.60;99.90
45066;DHT22;30830;53.704;10.004;2023-09-07T02:44:06;17.60;99.90
45066;DHT22;30830;53.704;10.004;2023-09-07T02:46:31;17.60;99.90
45066;DHT22;30830;53.704;10.004;2023-09-07T02:48:57;17.60;99.90
45066;DHT22;30830;53.704;10.004;2023-09-07T02:51:26;17.60;99.90
45066;DHT22;30830;53.704;10.004;2023-09-07T02:53:53;17.60;99.90
45066;DHT22;30830;53.704;10.004;2023-09-07T02:56:18;17.60;99.90
45066;DHT22;30830;53.704;10.004;2023-09-07T02:58:44;17.60;99.90
45066;DHT22;30830;53.704;10.004;2023-09-07T03:01:10;17.60;99.90
45066;DHT22;30830;53.704;10.004;2023-09-07T03:03:36;17.60;99.90
45066;DHT22;30830;53.704;10.004;2023-09-07T03:06:13;17.60;99.90
45066;DHT22;30830;53.704;10.004;2023-09-07T03:08:40;17.50;99.90
45066;DHT22;30830;53.704;10.004;2023-09-07T03:11:06;17.50;99.90
45066;DHT22;30830;53.704;10.004;2023-09-07T03:13:32;17.50;99.90
45066;DHT22;30830;53.704;10.004;2023-09-07T03:15:58;17.50;99.90
45066;DHT22;30830;53.704;10.004;2023-09-07T03:18:24;17.50;99.90
45066;DHT22;30830;53.704;10.004;2023-09-07T03:20:50;17.50;99.90
45066;DHT22;30830;53.704;10.004;2023-09-07T03:23:16;17.50;99.90
45066;DHT22;30830;53.704;10.004;2023-09-07T03:25:42;17.50;99.90
45066;DHT22;30830;53.704;10.004;2023-09-07T03:28:07;17.50;99.90
45066;DHT22;30830;53.704;10.004;2023-09-07T03:30:33;17.50;99.90
45066;DHT22;30830;53.704;10.004;2023-09-07T03:32:59;17.50;99.90
45066;DHT22;30830;53.704;10.004;2023-09-07T03:35:24;17.50;99.90
45066;DHT22;30830;53.704;10.004;2023-09-07T03:37:51;17.50;99.90
45066;DHT22;30830;53.704;10.004;2023-09-07T03:40:17;17.40;99.90
45066;DHT22;30830;53.704;10.004;2023-09-07T03:42:42;17.40;99.90
45066;DHT22;30830;53.704;10.004;2023-09-07T03:45:09;17.30;99.90
45066;DHT22;30830;53.704;10.004;2023-09-07T03:47:34;17.30;99.90
45066;DHT22;30830;53.704;10.004;2023-09-07T03:50:00;17.30;99.90
45066;DHT22;30830;53.704;10.004;2023-09-07T03:52:26;17.30;99.90
45066;DHT22;30830;53.704;10.004;2023-09-07T03:54:55;17.30;99.90
45066;DHT22;30830;53.704;10.004;2023-09-07T03:57:21;17.30;99.90
45066;DHT22;30830;53.704;10.004;2023-09-07T03:59:47;17.20;99.90
45066;DHT22;30830;53.704;10.004;2023-09-07T04:02:14;17.20;99.90
45066;DHT22;30830;53.704;10.004;2023-09-07T04:04:40;17.20;99.90
45066;DHT22;30830;53.704;10.004;2023-09-07T04:07:06;17.20;99.90
45066;DHT22;30830;53.704;10.004;2023-09-07T04:09:31;17.10;99.90
45066;DHT22;30830;53.704;10.004;2023-09-07T04:11:57;17.20;99.90
45066;DHT22;30830;53.704;10.004;2023-09-07T04:14:22;17.10;99.90
45066;DHT22;30830;53.704;10.004;2023-09-07T04:16:48;17.10;99.90
45066;DHT22;30830;53.704;10.004;2023-09-07T04:19:14;17.20;99.90
45066;DHT22;30830;53.704;10.004;2023-09-07T04:21:39;17.10;99.90
45066;DHT22;30830;53.704;10.004;2023-09-07T04:24:05;17.10;99.90
45066;DHT22;30830;53.704;10.004;2023-09-07T04:26:31;17.10;99.90
45066;DHT22;30830;53.704;10.004;2023-09-07T04:28:56;17.10;99.90
45066;DHT22;30830;53.704;10.004;2023-09-07T04:31:22;17.10;99.90
45066;DHT22;30830;53.704;10.004;2023-09-07T04:33:49;17.10;99.90
45066;DHT22;30830;53.704;10.004;2023-09-07T04:36:15;17.10;99.90
45066;DHT22;30830;53.704;10.004;2023-09-07T04:38:41;17.10;99.90
45066;DHT22;30830;53.704;10.004;2023-09-07T04:41:12;17.10;99.90
45066;DHT22;30830;53.704;10.004;2023-09-07T04:43:38;17.10;99.90
45066;DHT22;30830;53.704;10.004;2023-09-07T04:46:14;17.00;99.90
45066;DHT22;30830;53.704;10.004;2023-09-07T04:48:40;17.00;99.90
45066;DHT22;30830;53.704;10.004;2023-09-07T04:51:08;17.00;99.90
45066;DHT22;30830;53.704;10.004;2023-09-07T04:53:37;17.00;99.90
45066;DHT22;30830;53.704;10.004;2023-09-07T04:56:03;17.00;99.90
45066;DHT22;30830;53.704;10.004;2023-09-07T04:58:29;17.00;99.90
45066;DHT22;30830;53.704;10.004;2023-09-07T05:01:01;17.00;99.90
45066;DHT22;30830;53.704;10.004;2023-09-07T05:03:27;17.00;99.90
45066;DHT22;30830;53.704;10.004;2023-09-07T05:05:53;17.00;99.90
45066;DHT22;30830;53.704;10.004;2023-09-07T05:08:19;17.00;99.90
45066;DHT22;30830;53.704;10.004;2023-09-07T05:10:45;17.00;99.90
45066;DHT22;30830;53.704;10.004;2023-09-07T05:13:10;17.00;99.90
45066;DHT22;30830;53.704;10.004;2023-09-07T05:15:36;17.00;99.90
45066;DHT22;30830;53.704;10.004;2023-09-07T05:18:01;17.00;99.90
45066;DHT22;30830;53.704;10.004;2023-09-07T05:20:30;17.00;99.90
45066;DHT22;30830;53.704;10.004;2023-09-07T05:22:55;17.00;99.90
45066;DHT22;30830;53.704;10.004;2023-09-07T05:25:22;17.00;99.90
45066;DHT22;30830;53.704;10.004;2023-09-07T05:27:48;17.00;99.90
45066;DHT22;30830;53.704;10.004;2023-09-07T05:30:14;16.90;99.90
45066;DHT22;30830;53.704;10.004;2023-09-07T05:32:40;16.90;99.90
45066;DHT22;30830;53.704;10.004;2023-09-07T05:35:07;17.00;99.90
45066;DHT22;30830;53.704;10.004;2023-09-07T05:37:33;17.00;99.90
45066;DHT22;30830;53.704;10.004;2023-09-07T05:39:58;17.00;99.90
45066;DHT22;30830;53.704;10.004;2023-09-07T05:42:24;17.00;99.90
45066;DHT22;30830;53.704;10.004;2023-09-07T05:44:51;17.00;99.90
45066;DHT22;30830;53.704;10.004;2023-09-07T05:47:17;17.00;99.90
45066;DHT22;30830;53.704;10.004;2023-09-07T05:49:43;17.00;99.90
45066;DHT22;30830;53.704;10.004;2023-09-07T05:52:08;17.00;99.90
45066;DHT22;30830;53.704;10.004;2023-09-07T05:54:34;17.00;99.90
45066;DHT22;30830;53.704;10.004;2023-09-07T05:56:59;17.00;99.90
45066;DHT22;30830;53.704;10.004;2023-09-07T05:59:25;17.00;99.90
45066;DHT22;30830;53.704;10.004;2023-09-07T06:01:51;17.00;99.90
45066;DHT22;30830;53.704;10.004;2023-09-07T06:04:16;17.00;99.90
45066;DHT22;30830;53.704;10.004;2023-09-07T06:06:42;17.10;99.90
45066;DHT22;30830;53.704;10.004;2023-09-07T06:09:07;17.10;99.90
45066;DHT22;30830;53.704;10.004;2023-09-07T06:11:33;17.10;99.90
45066;DHT22;30830;53.704;10.004;2023-09-07T06:14:00;17.10;99.90
45066;DHT22;30830;53.704;10.004;2023-09-07T06:16:25;17.10;99.90
45066;DHT22;30830;53.704;10.004;2023-09-07T06:18:51;17.10;99.90
45066;DHT22;30830;53.704;10.004;2023-09-07T06:21:16;17.20;99.90
45066;DHT22;30830;53.704;10.004;2023-09-07T06:23:42;17.20;99.90
45066;DHT22;30830;53.704;10.004;2023-09-07T06:26:08;17.20;99.90
45066;DHT22;30830;53.704;10.004;2023-09-07T06:28:34;17.30;99.90
45066;DHT22;30830;53.704;10.004;2023-09-07T06:30:59;17.30;99.90
45066;DHT22;30830;53.704;10.004;2023-09-07T06:33:25;17.40;99.90
45066;DHT22;30830;53.704;10.004;2023-09-07T06:35:50;17.40;99.90
45066;DHT22;30830;53.704;10.004;2023-09-07T06:38:16;17.50;99.90
45066;DHT22;30830;53.704;10.004;2023-09-07T06:40:47;17.50;99.90
45066;DHT22;30830;53.704;10.004;2023-09-07T06:43:13;17.50;99.90
45066;DHT22;30830;53.704;10.004;2023-09-07T06:45:39;17.60;99.90
45066;DHT22;30830;53.704;10.004;2023-09-07T06:48:04;17.70;99.90
45066;DHT22;30830;53.704;10.004;2023-09-07T06:50:30;17.80;99.90
45066;DHT22;30830;53.704;10.004;2023-09-07T06:52:56;17.80;99.90
45066;DHT22;30830;53.704;10.004;2023-09-07T06:55:21;17.90;99.90
45066;DHT22;30830;53.704;10.004;2023-09-07T06:57:47;17.90;99.90
45066;DHT22;30830;53.704;10.004;2023-09-07T07:00:13;18.00;99.90
45066;DHT22;30830;53.704;10.004;2023-09-07T07:02:38;18.10;99.90
45066;DHT22;30830;53.704;10.004;2023-09-07T07:05:04;18.20;99.90
45066;DHT22;30830;53.704;10.004;2023-09-07T07:07:30;18.30;99.90
45066;DHT22;30830;53.704;10.004;2023-09-07T07:09:56;18.40;99.90
45066;DHT22;30830;53.704;10.004;2023-09-07T07:12:22;18.50;99.90
45066;DHT22;30830;53.704;10.004;2023-09-07T07:14:47;18.70;99.90
45066;DHT22;30830;53.704;10.004;2023-09-07T07:17:13;18.80;99.90
45066;DHT22;30830;53.704;10.004;2023-09-07T07:19:38;18.90;99.90
45066;DHT22;30830;53.704;10.004;2023-09-07T07:22:04;19.10;99.90
45066;DHT22;30830;53.704;10.004;2023-09-07T07:24:30;19.20;99.90
45066;DHT22;30830;53.704;10.004;2023-09-07T07:26:55;19.40;99.90
45066;DHT22;30830;53.704;10.004;2023-09-07T07:29:21;19.60;99.90
45066;DHT22;30830;53.704;10.004;2023-09-07T07:31:46;19.80;99.90
45066;DHT22;30830;53.704;10.004;2023-09-07T07:34:12;19.90;99.90
45066;DHT22;30830;53.704;10.004;2023-09-07T07:36:38;20.10;99.90
45066;DHT22;30830;53.704;10.004;2023-09-07T07:39:04;20.30;99.90
45066;DHT22;30830;53.704;10.004;2023-09-07T07:41:32;20.40;99.90
45066;DHT22;30830;53.704;10.004;2023-09-07T07:43:57;20.50;99.90
45066;DHT22;30830;53.704;10.004;2023-09-07T07:46:23;20.70;99.90
45066;DHT22;30830;53.704;10.004;2023-09-07T07:48:49;20.90;99.90
45066;DHT22;30830;53.704;10.004;2023-09-07T07:51:14;21.00;99.90
45066;DHT22;30830;53.704;10.004;2023-09-07T07:53:40;21.20;99.90
45066;DHT22;30830;53.704;10.004;2023-09-07T07:56:13;21.20;99.90
45066;DHT22;30830;53.704;10.004;2023-09-07T07:58:39;21.40;99.90
45066;DHT22;30830;53.704;10.004;2023-09-07T08:01:16;21.50;99.90
45066;DHT22;30830;53.704;10.004;2023-09-07T08:03:42;21.60;99.90
45066;DHT22;30830;53.704;10.004;2023-09-07T08:06:08;21.80;99.90
45066;DHT22;30830;53.704;10.004;2023-09-07T08:08:34;21.90;99.90
45066;DHT22;30830;53.704;10.004;2023-09-07T08:10:59;22.00;99.90
45066;DHT22;30830;53.704;10.004;2023-09-07T08:13:30;22.10;99.90
45066;DHT22;30830;53.704;10.004;2023-09-07T08:15:55;22.20;99.90
45066;DHT22;30830;53.704;10.004;2023-09-07T08:18:21;22.30;99.90
45066;DHT22;30830;53.704;10.004;2023-09-07T08:20:48;22.40;99.90
45066;DHT22;30830;53.704;10.004;2023-09-07T08:23:14;22.50;99.90
45066;DHT22;30830;53.704;10.004;2023-09-07T08:25:40;22.50;99.90
45066;DHT22;30830;53.704;10.004;2023-09-07T08:28:10;22.60;99.90
45066;DHT22;30830;53.704;10.004;2023-09-07T08:30:36;22.70;99.90
45066;DHT22;30830;53.704;10.004;2023-09-07T08:33:02;22.70;99.90
45066;DHT22;30830;53.704;10.004;2023-09-07T08:35:30;22.80;99.90
45066;DHT22;30830;53.704;10.004;2023-09-07T08:38:00;22.90;99.90
45066;DHT22;30830;53.704;10.004;2023-09-07T08:40:26;22.90;99.90
45066;DHT22;30830;53.704;10.004;2023-09-07T08:42:53;23.00;99.90
45066;DHT22;30830;53.704;10.004;2023-09-07T08:45:21;23.00;99.90
45066;DHT22;30830;53.704;10.004;2023-09-07T08:47:49;23.10;99.90
45066;DHT22;30830;53.704;10.004;2023-09-07T08:50:15;23.10;99.90
45066;DHT22;30830;53.704;10.004;2023-09-07T08:52:43;23.20;99.90
45066;DHT22;30830;53.704;10.004;2023-09-07T08:55:12;23.30;99.90
45066;DHT22;30830;53.704;10.004;2023-09-07T08:57:37;23.30;99.90
45066;DHT22;30830;53.704;10.004;2023-09-07T09:00:03;23.40;99.90
45066;DHT22;30830;53.704;10.004;2023-09-07T09:02:34;23.40;99.90
45066;DHT22;30830;53.704;10.004;2023-09-07T09:05:02;23.50;99.90
45066;DHT22;30830;53.704;10.004;2023-09-07T09:07:30;23.60;99.90
45066;DHT22;30830;53.704;10.004;2023-09-07T09:10:06;23.60;99.90
45066;DHT22;30830;53.704;10.004;2023-09-07T09:12:31;23.70;99.90
45066;DHT22;30830;53.704;10.004;2023-09-07T09:14:59;23.70;99.90
45066;DHT22;30830;53.704;10.004;2023-09-07T09:17:26;23.80;99.90
45066;DHT22;30830;53.704;10.004;2023-09-07T09:19:51;23.90;99.90
45066;DHT22;30830;53.704;10.004;2023-09-07T09:22:17;24.00;99.90
45066;DHT22;30830;53.704;10.004;2023-09-07T09:24:42;24.00;99.90
45066;DHT22;30830;53.704;10.004;2023-09-07T09:27:08;24.00;99.90
45066;DHT22;30830;53.704;10.004;2023-09-07T09:29:34;24.10;99.90
45066;DHT22;30830;53.704;10.004;2023-09-07T09:32:03;24.10;99.90
45066;DHT22;30830;53.704;10.004;2023-09-07T09:34:33;24.20;99.90
45066;DHT22;30830;53.704;10.004;2023-09-07T09:37:01;24.20;99.90
45066;DHT22;30830;53.704;10.004;2023-09-07T09:39:29;24.30;99.90
45066;DHT22;30830;53.704;10.004;2023-09-07T09:41:54;24.30;99.90
45066;DHT22;30830;53.704;10.004;2023-09-07T09:44:22;24.40;99.90
45066;DHT22;30830;53.704;10.004;2023-09-07T09:46:52;24.50;99.90
45066;DHT22;30830;53.704;10.004;2023-09-07T09:49:20;24.50;99.90
45066;DHT22;30830;53.704;10.004;2023-09-07T09:51:48;24.60;99.90
45066;DHT22;30830;53.704;10.004;2023-09-07T09:54:16;24.60;99.90
45066;DHT22;30830;53.704;10.004;2023-09-07T09:56:42;24.60;99.90
45066;DHT22;30830;53.704;10.004;2023-09-07T09:59:07;24.70;99.90
45066;DHT22;30830;53.704;10.004;2023-09-07T10:01:46;24.80;99.90
45066;DHT22;30830;53.704;10.004;2023-09-07T10:04:13;24.80;99.90
45066;DHT22;30830;53.704;10.004;2023-09-07T10:06:53;24.80;99.90
45066;DHT22;30830;53.704;10.004;2023-09-07T10:09:20;24.90;99.90
45066;DHT22;30830;53.704;10.004;2023-09-07T10:11:54;24.90;99.90
45066;DHT22;30830;53.704;10.004;2023-09-07T10:14:19;24.90;99.90
45066;DHT22;30830;53.704;10.004;2023-09-07T10:16:47;24.90;99.90
45066;DHT22;30830;53.704;10.004;2023-09-07T10:19:24;24.90;99.90
45066;DHT22;30830;53.704;10.004;2023-09-07T10:21:52;24.90;99.90
45066;DHT22;30830;53.704;10.004;2023-09-07T10:24:32;25.00;99.90
45066;DHT22;30830;53.704;10.004;2023-09-07T10:27:06;25.00;99.90
45066;DHT22;30830;53.704;10.004;2023-09-07T10:29:52;25.10;99.90
45066;DHT22;30830;53.704;10.004;2023-09-07T10:32:18;25.10;99.90
45066;DHT22;30830;53.704;10.004;2023-09-07T10:34:44;25.10;99.90
45066;DHT22;30830;53.704;10.004;2023-09-07T10:37:13;25.20;99.90
45066;DHT22;30830;53.704;10.004;2023-09-07T10:39:40;25.20;99.90
45066;DHT22;30830;53.704;10.004;2023-09-07T10:42:08;25.20;99.90
45066;DHT22;30830;53.704;10.004;2023-09-07T10:44:34;25.20;99.90
45066;DHT22;30830;53.704;10.004;2023-09-07T10:47:00;25.20;99.90
45066;DHT22;30830;53.704;10.004;2023-09-07T10:49:25;25.30;99.90
45066;DHT22;30830;53.704;10.004;2023-09-07T10:51:51;25.30;99.90
45066;DHT22;30830;53.704;10.004;2023-09-07T10:54:18;25.30;99.90
45066;DHT22;30830;53.704;10.004;2023-09-07T10:56:45;25.40;99.90
45066;DHT22;30830;53.704;10.004;2023-09-07T10:59:14;25.40;99.90
45066;DHT22;30830;53.704;10.004;2023-09-07T11:01:40;25.40;99.90
45066;DHT22;30830;53.704;10.004;2023-09-07T11:04:06;25.40;99.90
45066;DHT22;30830;53.704;10.004;2023-09-07T11:06:34;25.50;99.90
45066;DHT22;30830;53.704;10.004;2023-09-07T11:09:00;25.50;99.90
45066;DHT22;30830;53.704;10.004;2023-09-07T11:11:29;25.50;99.90
45066;DHT22;30830;53.704;10.004;2023-09-07T11:13:57;25.50;99.90
45066;DHT22;30830;53.704;10.004;2023-09-07T11:16:25;25.50;99.90
45066;DHT22;30830;53.704;10.004;2023-09-07T11:18:52;25.50;99.90
45066;DHT22;30830;53.704;10.004;2023-09-07T11:21:20;25.50;99.90
45066;DHT22;30830;53.704;10.004;2023-09-07T11:23:45;25.60;99.90
45066;DHT22;30830;53.704;10.004;2023-09-07T11:26:11;25.60;99.90
45066;DHT22;30830;53.704;10.004;2023-09-07T11:28:38;25.70;99.90
45066;DHT22;30830;53.704;10.004;2023-09-07T11:31:03;25.70;99.90
45066;DHT22;30830;53.704;10.004;2023-09-07T11:33:33;25.70;99.90
45066;DHT22;30830;53.704;10.004;2023-09-07T11:35:59;25.80;99.90
45066;DHT22;30830;53.704;10.004;2023-09-07T11:38:30;25.80;99.90
45066;DHT22;30830;53.704;10.004;2023-09-07T11:41:00;25.80;99.90
45066;DHT22;30830;53.704;10.004;2023-09-07T11:43:25;25.80;99.90
45066;DHT22;30830;53.704;10.004;2023-09-07T11:45:51;25.90;99.90
45066;DHT22;30830;53.704;10.004;2023-09-07T11:48:16;25.90;99.90
45066;DHT22;30830;53.704;10.004;2023-09-07T11:50:43;25.90;99.90
45066;DHT22;30830;53.704;10.004;2023-09-07T11:53:09;26.00;99.80
45066;DHT22;30830;53.704;10.004;2023-09-07T11:55:35;26.00;99.90
45066;DHT22;30830;53.704;10.004;2023-09-07T11:58:04;26.00;99.90
45066;DHT22;30830;53.704;10.004;2023-09-07T12:00:32;26.10;99.90
45066;DHT22;30830;53.704;10.004;2023-09-07T12:02:58;26.10;99.90
45066;DHT22;30830;53.704;10.004;2023-09-07T12:05:24;26.10;99.90
45066;DHT22;30830;53.704;10.004;2023-09-07T12:07:50;26.20;99.90
45066;DHT22;30830;53.704;10.004;2023-09-07T12:10:15;26.20;99.90
45066;DHT22;30830;53.704;10.004;2023-09-07T12:12:42;26.20;99.90
45066;DHT22;30830;53.704;10.004;2023-09-07T12:15:09;26.30;99.90
45066;DHT22;30830;53.704;10.004;2023-09-07T12:17:40;26.30;99.90
45066;DHT22;30830;53.704;10.004;2023-09-07T12:20:06;26.30;99.90
45066;DHT22;30830;53.704;10.004;2023-09-07T12:22:36;26.30;99.90
45066;DHT22;30830;53.704;10.004;2023-09-07T12:25:04;26.30;99.40
45066;DHT22;30830;53.704;10.004;2023-09-07T12:27:34;26.40;99.70
45066;DHT22;30830;53.704;10.004;2023-09-07T12:30:03;26.40;99.80
45066;DHT22;30830;53.704;10.004;2023-09-07T12:32:33;26.40;99.90
45066;DHT22;30830;53.704;10.004;2023-09-07T12:34:59;26.50;99.90
45066;DHT22;30830;53.704;10.004;2023-09-07T12:37:25;26.50;99.10
45066;DHT22;30830;53.704;10.004;2023-09-07T12:39:51;26.60;99.10
45066;DHT22;30830;53.704;10.004;2023-09-07T12:42:17;26.60;98.70
45066;DHT22;30830;53.704;10.004;2023-09-07T12:44:43;26.70;98.20
45066;DHT22;30830;53.704;10.004;2023-09-07T12:47:09;26.60;98.80
45066;DHT22;30830;53.704;10.004;2023-09-07T12:49:34;26.70;98.70
45066;DHT22;30830;53.704;10.004;2023-09-07T12:52:03;26.70;98.90
45066;DHT22;30830;53.704;10.004;2023-09-07T12:54:34;26.70;99.00
45066;DHT22;30830;53.704;10.004;2023-09-07T12:57:00;26.70;98.90
45066;DHT22;30830;53.704;10.004;2023-09-07T12:59:26;26.80;98.70
45066;DHT22;30830;53.704;10.004;2023-09-07T13:01:51;26.80;98.60
45066;DHT22;30830;53.704;10.004;2023-09-07T13:04:19;26.80;98.30
45066;DHT22;30830;53.704;10.004;2023-09-07T13:06:45;26.90;97.40
45066;DHT22;30830;53.704;10.004;2023-09-07T13:09:10;26.90;97.70
45066;DHT22;30830;53.704;10.004;2023-09-07T13:11:36;26.90;98.40
45066;DHT22;30830;53.704;10.004;2023-09-07T13:14:02;26.90;98.00
45066;DHT22;30830;53.704;10.004;2023-09-07T13:16:27;27.00;98.10
45066;DHT22;30830;53.704;10.004;2023-09-07T13:18:53;27.00;97.10
45066;DHT22;30830;53.704;10.004;2023-09-07T13:21:19;27.10;97.80
45066;DHT22;30830;53.704;10.004;2023-09-07T13:23:44;27.10;97.10
45066;DHT22;30830;53.704;10.004;2023-09-07T13:26:12;27.10;97.10
45066;DHT22;30830;53.704;10.004;2023-09-07T13:28:40;27.10;96.70
45066;DHT22;30830;53.704;10.004;2023-09-07T13:31:06;27.10;97.10
45066;DHT22;30830;53.704;10.004;2023-09-07T13:33:32;27.10;97.40
45066;DHT22;30830;53.704;10.004;2023-09-07T13:35:58;27.10;97.60
45066;DHT22;30830;53.704;10.004;2023-09-07T13:38:23;27.10;98.00
45066;DHT22;30830;53.704;10.004;2023-09-07T13:40:49;27.20;96.90
45066;DHT22;30830;53.704;10.004;2023-09-07T13:43:14;27.20;95.80
45066;DHT22;30830;53.704;10.004;2023-09-07T13:45:40;27.20;95.10
45066;DHT22;30830;53.704;10.004;2023-09-07T13:48:06;27.30;94.50
45066;DHT22;30830;53.704;10.004;2023-09-07T13:50:31;27.30;94.60
45066;DHT22;30830;53.704;10.004;2023-09-07T13:52:57;27.30;95.10
45066;DHT22;30830;53.704;10.004;2023-09-07T13:55:23;27.30;95.10
45066;DHT22;30830;53.704;10.004;2023-09-07T13:57:50;27.30;95.60
45066;DHT22;30830;53.704;10.004;2023-09-07T14:00:16;27.40;95.60
45066;DHT22;30830;53.704;10.004;2023-09-07T14:02:41;27.40;95.00
45066;DHT22;30830;53.704;10.004;2023-09-07T14:05:07;27.40;95.30
45066;DHT22;30830;53.704;10.004;2023-09-07T14:07:33;27.40;95.10
45066;DHT22;30830;53.704;10.004;2023-09-07T14:09:59;27.40;95.20
45066;DHT22;30830;53.704;10.004;2023-09-07T14:12:26;27.40;94.90
45066;DHT22;30830;53.704;10.004;2023-09-07T14:14:52;27.40;94.10
45066;DHT22;30830;53.704;10.004;2023-09-07T14:17:18;27.50;94.70
45066;DHT22;30830;53.704;10.004;2023-09-07T14:19:43;27.50;94.60
45066;DHT22;30830;53.704;10.004;2023-09-07T14:22:11;27.50;95.40
45066;DHT22;30830;53.704;10.004;2023-09-07T14:24:37;27.50;94.40
45066;DHT22;30830;53.704;10.004;2023-09-07T14:27:02;27.50;94.60
45066;DHT22;30830;53.704;10.004;2023-09-07T14:29:28;27.60;94.00
45066;DHT22;30830;53.704;10.004;2023-09-07T14:31:54;27.60;93.90
45066;DHT22;30830;53.704;10.004;2023-09-07T14:34:20;27.60;94.30
45066;DHT22;30830;53.704;10.004;2023-09-07T14:36:45;27.60;93.80
45066;DHT22;30830;53.704;10.004;2023-09-07T14:39:11;27.60;93.70
45066;DHT22;30830;53.704;10.004;2023-09-07T14:41:37;27.60;93.50
45066;DHT22;30830;53.704;10.004;2023-09-07T14:44:03;27.60;93.70
45066;DHT22;30830;53.704;10.004;2023-09-07T14:46:29;27.60;94.10
45066;DHT22;30830;53.704;10.004;2023-09-07T14:48:55;27.60;93.60
45066;DHT22;30830;53.704;10.004;2023-09-07T14:51:21;27.50;93.80
45066;DHT22;30830;53.704;10.004;2023-09-07T14:53:47;27.50;94.10
45066;DHT22;30830;53.704;10.004;2023-09-07T14:56:12;27.50;93.60
45066;DHT22;30830;53.704;10.004;2023-09-07T14:58:38;27.50;93.60
45066;DHT22;30830;53.704;10.004;2023-09-07T15:01:04;27.50;93.90
45066;DHT22;30830;53.704;10.004;2023-09-07T15:03:30;27.50;94.10
45066;DHT22;30830;53.704;10.004;2023-09-07T15:05:56;27.40;94.00
45066;DHT22;30830;53.704;10.004;2023-09-07T15:08:22;27.50;93.80
45066;DHT22;30830;53.704;10.004;2023-09-07T15:10:48;27.40;93.70